Arlington, CO

7:46 AM MDT on July 30, 2014 (GMT -0600)
NE Crowley County (KCOSUGAR1) Elev 4590 ft | 38.45 °N, 103.52 °W | Change Station
Active Advisory: Flash Flood Watch

Current weather conditions updated 27 seconds ago

Overcast
Overcast
61.8 °F
Feels Like 61.8 °F
N
0.0
Wind Variable Wind from NE
Gusts 4.0 mph

Today is forecast to be Much Cooler than yesterday. Scattered thunderstorms possible.

Today
High -- | Low -- °F
--% Chance of Precip.
Yesterday
High -- | Low -- °F
Precip. -- in
5:53 AM 8:05 PM
Waxing Crescent, 11% visible
Pressure 30.20 in
Visibility 10.0 miles
Clouds Mostly Cloudy 2300 ft
Overcast 3600 ft
Dew Point 60 °F
Humidity 94%
Rainfall 0.05 in
Snow Depth Not available.
UV 0 out of 12
Pollen .50 out of 12
Air Quality Not available.
Flu Activity Not available.
SPECI KLHX 301339Z AUTO 03011KT 10SM BKN023 OVC036 18/16 A3020 RMK AO2 T01780161

More Conditions Fewer Conditions

Pressure 30.20 in
Visibility 10.0 miles
Clouds Mostly Cloudy 2300 ft
Overcast 3600 ft
Dew Point 60 °F
Humidity 94%
Rainfall 0.05 in
Snow Depth Not available.
UV 0 out of 12
Pollen .50 out of 12
Air Quality Not available.
Flu Activity Not available.
SPECI KLHX 301339Z AUTO 03011KT 10SM BKN023 OVC036 18/16 A3020 RMK AO2 T01780161

More Conditions Fewer Conditions

10-Day Weather Forecast

Almanac

Astronomy

Jul. 30, 2014 Rise Set
Actual Time 5:53 AM MDT 8:05 PM MDT
Civil Twilight 5:24 AM MDT 8:34 PM MDT
Nautical Twilight 4:48 AM MDT 9:10 PM MDT
Astronomical Twilight 4:08 AM MDT 9:50 PM MDT
Moon 9:24 AM MDT 9:52 PM MDT
Length of Visible Light 15h 10m
Length of Day
14h 11m
Tomorrow will be 1m 49s shorter.
Waxing Crescent, 11% of the Moon is Illuminated
Today
Waxing Crescent
Aug 3
First Quarter
Aug 10
Full
Aug 17
Last Quarter
Aug 25
New

Today's Extremes

State Highs State Lows

Community

WunderPhotos

Upload Photos

1,739,080 photos uploaded!

Nearby

Snow Depth

Station Depth Elevation
Apishapa 0 in 10000 ft
Medano Pass 0 in 9620 ft
South Colony 0 in 10800 ft
Ute Creek 0 in 10650 ft
Trinchera 2 in 10860 ft

Earthquake Activity

City Distance Mag. Time & Date
No recent earthquake activity has been reported nearby.
Minimum magnitude displayed is 2.5.

Coastal Water Temperatures

Place Temperature
No Stations Reporting

Nearby Weather Stations

Station Location Temp. Dew Point Humidity Wind Precip. Elev Updated Type
NE Crowley County, Sugar City, CO 61.8 °F 60 °F 94% NE  at  0.0 mph 0.00 in / hr 4590 ft 7:46 AM MDT Rapid Fire
The Ranch, Ordway, CO 60.7 °F 59 °F 94% East  at  8.0 mph 0.00 in / hr 5020 ft 7:34 AM MDT Normal

Show More Stations Show Fewer Stations